sensor_id;sensor_type;location;lat;lon;timestamp;P1;durP1;ratioP1;P2;durP2;ratioP2
13989;SDS011;7069;52.528;13.316;2023-03-23T00:01:10;1.58;;;1.48;;
13989;SDS011;7069;52.528;13.316;2023-03-23T00:03:38;1.55;;;1.45;;
13989;SDS011;7069;52.528;13.316;2023-03-23T00:06:06;3.78;;;2.50;;
13989;SDS011;7069;52.528;13.316;2023-03-23T00:08:33;6.13;;;2.40;;
13989;SDS011;7069;52.528;13.316;2023-03-23T00:11:02;1.85;;;1.60;;
13989;SDS011;7069;52.528;13.316;2023-03-23T00:13:28;2.55;;;1.80;;
13989;SDS011;7069;52.528;13.316;2023-03-23T00:15:55;2.30;;;2.10;;
13989;SDS011;7069;52.528;13.316;2023-03-23T00:18:23;3.83;;;2.40;;
13989;SDS011;7069;52.528;13.316;2023-03-23T00:20:50;2.47;;;2.28;;
13989;SDS011;7069;52.528;13.316;2023-03-23T00:23:18;2.08;;;1.80;;
13989;SDS011;7069;52.528;13.316;2023-03-23T00:25:46;2.03;;;1.83;;
13989;SDS011;7069;52.528;13.316;2023-03-23T00:28:13;1.80;;;1.70;;
13989;SDS011;7069;52.528;13.316;2023-03-23T00:30:40;2.58;;;1.77;;
13989;SDS011;7069;52.528;13.316;2023-03-23T00:33:07;4.10;;;2.00;;
13989;SDS011;7069;52.528;13.316;2023-03-23T00:35:34;3.88;;;2.60;;
13989;SDS011;7069;52.528;13.316;2023-03-23T00:38:01;2.13;;;2.03;;
13989;SDS011;7069;52.528;13.316;2023-03-23T00:40:29;3.42;;;2.10;;
13989;SDS011;7069;52.528;13.316;2023-03-23T00:42:55;2.75;;;2.47;;
13989;SDS011;7069;52.528;13.316;2023-03-23T00:45:22;2.80;;;1.90;;
13989;SDS011;7069;52.528;13.316;2023-03-23T00:47:49;3.03;;;1.95;;
13989;SDS011;7069;52.528;13.316;2023-03-23T00:50:16;2.17;;;1.83;;
13989;SDS011;7069;52.528;13.316;2023-03-23T00:52:43;2.70;;;2.10;;
13989;SDS011;7069;52.528;13.316;2023-03-23T00:55:10;2.00;;;1.70;;
13989;SDS011;7069;52.528;13.316;2023-03-23T00:57:38;2.55;;;1.67;;
13989;SDS011;7069;52.528;13.316;2023-03-23T01:00:06;3.17;;;1.63;;
13989;SDS011;7069;52.528;13.316;2023-03-23T01:02:36;2.22;;;2.10;;
13989;SDS011;7069;52.528;13.316;2023-03-23T01:05:06;3.05;;;2.10;;
13989;SDS011;7069;52.528;13.316;2023-03-23T01:07:32;2.33;;;2.13;;
13989;SDS011;7069;52.528;13.316;2023-03-23T01:09:59;5.57;;;2.03;;
13989;SDS011;7069;52.528;13.316;2023-03-23T01:12:26;2.92;;;1.70;;
13989;SDS011;7069;52.528;13.316;2023-03-23T01:14:55;3.67;;;2.00;;
13989;SDS011;7069;52.528;13.316;2023-03-23T01:17:21;1.70;;;1.60;;
13989;SDS011;7069;52.528;13.316;2023-03-23T01:19:48;2.20;;;2.00;;
13989;SDS011;7069;52.528;13.316;2023-03-23T01:22:14;2.10;;;2.00;;
13989;SDS011;7069;52.528;13.316;2023-03-23T01:24:41;2.13;;;2.00;;
13989;SDS011;7069;52.528;13.316;2023-03-23T01:27:07;2.53;;;1.80;;
13989;SDS011;7069;52.528;13.316;2023-03-23T01:29:34;2.53;;;2.27;;
13989;SDS011;7069;52.528;13.316;2023-03-23T01:32:02;2.17;;;1.90;;
13989;SDS011;7069;52.528;13.316;2023-03-23T01:34:29;3.20;;;2.10;;
13989;SDS011;7069;52.528;13.316;2023-03-23T01:36:56;2.20;;;1.73;;
13989;SDS011;7069;52.528;13.316;2023-03-23T01:39:23;1.73;;;1.63;;
13989;SDS011;7069;52.528;13.316;2023-03-23T01:41:49;2.63;;;2.25;;
13989;SDS011;7069;52.528;13.316;2023-03-23T01:47:02;1.73;;;1.63;;
13989;SDS011;7069;52.528;13.316;2023-03-23T01:49:29;2.60;;;2.40;;
13989;SDS011;7069;52.528;13.316;2023-03-23T01:51:58;2.50;;;2.30;;
13989;SDS011;7069;52.528;13.316;2023-03-23T01:54:26;2.50;;;2.30;;
13989;SDS011;7069;52.528;13.316;2023-03-23T01:56:53;3.80;;;2.07;;
13989;SDS011;7069;52.528;13.316;2023-03-23T01:59:21;2.27;;;2.07;;
13989;SDS011;7069;52.528;13.316;2023-03-23T02:01:49;2.30;;;2.10;;
13989;SDS011;7069;52.528;13.316;2023-03-23T02:04:18;3.13;;;2.20;;
13989;SDS011;7069;52.528;13.316;2023-03-23T02:06:46;4.23;;;1.87;;
13989;SDS011;7069;52.528;13.316;2023-03-23T02:09:13;4.13;;;2.83;;
13989;SDS011;7069;52.528;13.316;2023-03-23T02:11:42;2.47;;;2.20;;
13989;SDS011;7069;52.528;13.316;2023-03-23T02:14:09;2.73;;;2.03;;
13989;SDS011;7069;52.528;13.316;2023-03-23T02:16:37;2.27;;;2.10;;
13989;SDS011;7069;52.528;13.316;2023-03-23T02:19:12;2.30;;;2.10;;
13989;SDS011;7069;52.528;13.316;2023-03-23T02:22:00;2.50;;;2.10;;
13989;SDS011;7069;52.528;13.316;2023-03-23T02:24:37;3.20;;;2.50;;
13989;SDS011;7069;52.528;13.316;2023-03-23T02:27:10;5.10;;;2.20;;
13989;SDS011;7069;52.528;13.316;2023-03-23T02:32:36;2.10;;;1.90;;
13989;SDS011;7069;52.528;13.316;2023-03-23T02:35:07;5.10;;;2.77;;
13989;SDS011;7069;52.528;13.316;2023-03-23T02:37:36;2.53;;;1.97;;
13989;SDS011;7069;52.528;13.316;2023-03-23T02:40:04;5.73;;;2.07;;
13989;SDS011;7069;52.528;13.316;2023-03-23T02:42:35;2.40;;;1.87;;
13989;SDS011;7069;52.528;13.316;2023-03-23T02:45:03;3.83;;;2.27;;
13989;SDS011;7069;52.528;13.316;2023-03-23T02:47:30;2.37;;;2.03;;
13989;SDS011;7069;52.528;13.316;2023-03-23T02:49:58;2.07;;;1.83;;
13989;SDS011;7069;52.528;13.316;2023-03-23T02:52:27;2.03;;;1.83;;
13989;SDS011;7069;52.528;13.316;2023-03-23T02:54:55;2.57;;;2.37;;
13989;SDS011;7069;52.528;13.316;2023-03-23T02:57:23;2.70;;;1.80;;
13989;SDS011;7069;52.528;13.316;2023-03-23T02:59:51;2.37;;;2.13;;
13989;SDS011;7069;52.528;13.316;2023-03-23T03:02:17;2.97;;;2.30;;
13989;SDS011;7069;52.528;13.316;2023-03-23T03:04:46;2.30;;;2.10;;
13989;SDS011;7069;52.528;13.316;2023-03-23T03:07:33;4.10;;;2.30;;
13989;SDS011;7069;52.528;13.316;2023-03-23T03:10:04;2.17;;;1.97;;
13989;SDS011;7069;52.528;13.316;2023-03-23T03:12:34;2.30;;;1.83;;
13989;SDS011;7069;52.528;13.316;2023-03-23T03:15:06;3.97;;;2.23;;
13989;SDS011;7069;52.528;13.316;2023-03-23T03:17:35;2.53;;;2.03;;
13989;SDS011;7069;52.528;13.316;2023-03-23T03:20:05;2.07;;;1.87;;
13989;SDS011;7069;52.528;13.316;2023-03-23T03:22:36;3.00;;;2.20;;
13989;SDS011;7069;52.528;13.316;2023-03-23T03:25:07;2.20;;;2.00;;
13989;SDS011;7069;52.528;13.316;2023-03-23T03:27:34;2.10;;;1.90;;
13989;SDS011;7069;52.528;13.316;2023-03-23T03:30:02;2.83;;;1.70;;
13989;SDS011;7069;52.528;13.316;2023-03-23T03:32:31;1.80;;;1.70;;
13989;SDS011;7069;52.528;13.316;2023-03-23T03:35:01;2.17;;;1.97;;
13989;SDS011;7069;52.528;13.316;2023-03-23T03:37:32;5.33;;;2.00;;
13989;SDS011;7069;52.528;13.316;2023-03-23T03:40:00;2.10;;;1.90;;
13989;SDS011;7069;52.528;13.316;2023-03-23T03:42:28;2.57;;;2.37;;
13989;SDS011;7069;52.528;13.316;2023-03-23T03:44:55;2.27;;;2.07;;
13989;SDS011;7069;52.528;13.316;2023-03-23T03:47:21;2.40;;;2.20;;
13989;SDS011;7069;52.528;13.316;2023-03-23T03:49:48;2.17;;;1.97;;
13989;SDS011;7069;52.528;13.316;2023-03-23T03:52:14;1.97;;;1.83;;
13989;SDS011;7069;52.528;13.316;2023-03-23T03:54:41;2.20;;;2.00;;
13989;SDS011;7069;52.528;13.316;2023-03-23T03:57:09;4.80;;;2.10;;
13989;SDS011;7069;52.528;13.316;2023-03-23T03:59:36;4.10;;;2.47;;
13989;SDS011;7069;52.528;13.316;2023-03-23T04:02:03;3.70;;;2.30;;
13989;SDS011;7069;52.528;13.316;2023-03-23T04:04:30;3.80;;;2.17;;
13989;SDS011;7069;52.528;13.316;2023-03-23T04:06:56;4.10;;;2.00;;
13989;SDS011;7069;52.528;13.316;2023-03-23T04:09:23;2.23;;;2.00;;
13989;SDS011;7069;52.528;13.316;2023-03-23T04:11:52;2.30;;;2.10;;
13989;SDS011;7069;52.528;13.316;2023-03-23T04:14:20;2.50;;;1.70;;
13989;SDS011;7069;52.528;13.316;2023-03-23T04:16:46;2.40;;;2.20;;
13989;SDS011;7069;52.528;13.316;2023-03-23T04:19:21;4.23;;;3.20;;
13989;SDS011;7069;52.528;13.316;2023-03-23T04:21:48;2.50;;;2.00;;
13989;SDS011;7069;52.528;13.316;2023-03-23T04:24:15;3.90;;;2.07;;
13989;SDS011;7069;52.528;13.316;2023-03-23T04:26:41;2.63;;;2.30;;
13989;SDS011;7069;52.528;13.316;2023-03-23T04:29:09;5.23;;;1.57;;
13989;SDS011;7069;52.528;13.316;2023-03-23T04:31:39;2.00;;;1.77;;
13989;SDS011;7069;52.528;13.316;2023-03-23T04:34:10;2.70;;;2.00;;
13989;SDS011;7069;52.528;13.316;2023-03-23T04:36:39;1.83;;;1.73;;
13989;SDS011;7069;52.528;13.316;2023-03-23T04:39:07;3.03;;;2.13;;
13989;SDS011;7069;52.528;13.316;2023-03-23T04:41:35;2.80;;;1.80;;
13989;SDS011;7069;52.528;13.316;2023-03-23T04:44:02;1.97;;;1.87;;
13989;SDS011;7069;52.528;13.316;2023-03-23T04:46:29;3.10;;;2.30;;
13989;SDS011;7069;52.528;13.316;2023-03-23T04:48:58;2.03;;;1.80;;
13989;SDS011;7069;52.528;13.316;2023-03-23T04:51:25;2.27;;;2.07;;
13989;SDS011;7069;52.528;13.316;2023-03-23T04:53:52;3.67;;;2.20;;
13989;SDS011;7069;52.528;13.316;2023-03-23T04:56:18;3.07;;;2.33;;
13989;SDS011;7069;52.528;13.316;2023-03-23T04:58:45;3.10;;;2.30;;
13989;SDS011;7069;52.528;13.316;2023-03-23T05:01:12;2.47;;;2.23;;
13989;SDS011;7069;52.528;13.316;2023-03-23T05:03:40;2.50;;;2.30;;
13989;SDS011;7069;52.528;13.316;2023-03-23T05:06:08;3.10;;;2.17;;
13989;SDS011;7069;52.528;13.316;2023-03-23T05:08:35;2.47;;;2.27;;
13989;SDS011;7069;52.528;13.316;2023-03-23T05:11:04;2.33;;;2.07;;
13989;SDS011;7069;52.528;13.316;2023-03-23T05:13:31;3.33;;;2.30;;
13989;SDS011;7069;52.528;13.316;2023-03-23T05:15:57;3.77;;;2.40;;
13989;SDS011;7069;52.528;13.316;2023-03-23T05:18:24;2.97;;;2.33;;
13989;SDS011;7069;52.528;13.316;2023-03-23T05:20:51;3.53;;;2.57;;
13989;SDS011;7069;52.528;13.316;2023-03-23T05:23:20;4.40;;;2.60;;
13989;SDS011;7069;52.528;13.316;2023-03-23T05:25:52;3.83;;;1.93;;
13989;SDS011;7069;52.528;13.316;2023-03-23T05:28:19;4.80;;;2.83;;
13989;SDS011;7069;52.528;13.316;2023-03-23T05:30:47;2.60;;;2.40;;
13989;SDS011;7069;52.528;13.316;2023-03-23T05:33:13;5.63;;;2.73;;
13989;SDS011;7069;52.528;13.316;2023-03-23T05:35:40;2.77;;;2.57;;
13989;SDS011;7069;52.528;13.316;2023-03-23T05:38:07;2.83;;;2.63;;
13989;SDS011;7069;52.528;13.316;2023-03-23T05:40:35;6.87;;;2.67;;
13989;SDS011;7069;52.528;13.316;2023-03-23T05:43:02;2.63;;;2.43;;
13989;SDS011;7069;52.528;13.316;2023-03-23T05:45:29;3.03;;;2.63;;
13989;SDS011;7069;52.528;13.316;2023-03-23T05:47:55;3.00;;;2.70;;
13989;SDS011;7069;52.528;13.316;2023-03-23T05:50:23;4.30;;;2.43;;
13989;SDS011;7069;52.528;13.316;2023-03-23T05:52:49;3.53;;;2.10;;
13989;SDS011;7069;52.528;13.316;2023-03-23T05:55:16;3.17;;;2.53;;
13989;SDS011;7069;52.528;13.316;2023-03-23T05:57:44;3.37;;;2.87;;
13989;SDS011;7069;52.528;13.316;2023-03-23T06:00:11;3.63;;;2.80;;
13989;SDS011;7069;52.528;13.316;2023-03-23T06:02:45;4.73;;;2.83;;
13989;SDS011;7069;52.528;13.316;2023-03-23T06:05:12;3.37;;;2.87;;
13989;SDS011;7069;52.528;13.316;2023-03-23T06:07:38;2.83;;;2.53;;
13989;SDS011;7069;52.528;13.316;2023-03-23T06:10:05;4.30;;;2.70;;
13989;SDS011;7069;52.528;13.316;2023-03-23T06:12:34;4.17;;;2.90;;
13989;SDS011;7069;52.528;13.316;2023-03-23T06:15:02;3.70;;;2.43;;
13989;SDS011;7069;52.528;13.316;2023-03-23T06:17:29;4.93;;;3.43;;
13989;SDS011;7069;52.528;13.316;2023-03-23T06:19:55;4.40;;;2.77;;
13989;SDS011;7069;52.528;13.316;2023-03-23T06:22:22;3.73;;;3.30;;
13989;SDS011;7069;52.528;13.316;2023-03-23T06:24:49;3.33;;;2.67;;
13989;SDS011;7069;52.528;13.316;2023-03-23T06:27:16;3.70;;;3.00;;
13989;SDS011;7069;52.528;13.316;2023-03-23T06:29:42;5.80;;;3.33;;
13989;SDS011;7069;52.528;13.316;2023-03-23T06:32:10;2.70;;;2.50;;
13989;SDS011;7069;52.528;13.316;2023-03-23T06:34:38;4.97;;;2.80;;
13989;SDS011;7069;52.528;13.316;2023-03-23T06:37:05;4.30;;;3.30;;
13989;SDS011;7069;52.528;13.316;2023-03-23T06:39:32;2.63;;;2.43;;
13989;SDS011;7069;52.528;13.316;2023-03-23T06:41:59;3.13;;;2.70;;
13989;SDS011;7069;52.528;13.316;2023-03-23T06:44:26;4.13;;;2.70;;
13989;SDS011;7069;52.528;13.316;2023-03-23T06:46:52;5.20;;;2.87;;
13989;SDS011;7069;52.528;13.316;2023-03-23T06:49:20;6.53;;;3.10;;
13989;SDS011;7069;52.528;13.316;2023-03-23T06:51:47;4.47;;;2.33;;
13989;SDS011;7069;52.528;13.316;2023-03-23T06:54:13;4.03;;;2.33;;
13989;SDS011;7069;52.528;13.316;2023-03-23T06:56:41;7.13;;;3.13;;
13989;SDS011;7069;52.528;13.316;2023-03-23T06:59:07;5.53;;;3.50;;
13989;SDS011;7069;52.528;13.316;2023-03-23T07:01:35;4.13;;;2.93;;
13989;SDS011;7069;52.528;13.316;2023-03-23T07:04:02;5.80;;;3.37;;
13989;SDS011;7069;52.528;13.316;2023-03-23T07:06:30;5.10;;;3.40;;
13989;SDS011;7069;52.528;13.316;2023-03-23T07:08:57;4.17;;;2.80;;
13989;SDS011;7069;52.528;13.316;2023-03-23T07:11:23;4.10;;;2.67;;
13989;SDS011;7069;52.528;13.316;2023-03-23T07:13:50;5.27;;;3.10;;
13989;SDS011;7069;52.528;13.316;2023-03-23T07:16:16;4.30;;;3.00;;
13989;SDS011;7069;52.528;13.316;2023-03-23T07:18:43;4.67;;;3.00;;
13989;SDS011;7069;52.528;13.316;2023-03-23T07:21:10;5.33;;;2.97;;
13989;SDS011;7069;52.528;13.316;2023-03-23T07:23:38;3.03;;;2.57;;
13989;SDS011;7069;52.528;13.316;2023-03-23T07:26:05;5.63;;;3.97;;
13989;SDS011;7069;52.528;13.316;2023-03-23T07:28:32;6.37;;;3.57;;
13989;SDS011;7069;52.528;13.316;2023-03-23T07:30:59;4.70;;;3.00;;
13989;SDS011;7069;52.528;13.316;2023-03-23T07:33:26;3.37;;;3.07;;
13989;SDS011;7069;52.528;13.316;2023-03-23T07:35:53;6.33;;;3.43;;
13989;SDS011;7069;52.528;13.316;2023-03-23T07:38:20;6.20;;;3.10;;
13989;SDS011;7069;52.528;13.316;2023-03-23T07:40:48;5.57;;;3.60;;
13989;SDS011;7069;52.528;13.316;2023-03-23T07:43:14;4.13;;;3.73;;
13989;SDS011;7069;52.528;13.316;2023-03-23T07:45:41;6.70;;;6.03;;
13989;SDS011;7069;52.528;13.316;2023-03-23T07:48:08;3.47;;;3.17;;
13989;SDS011;7069;52.528;13.316;2023-03-23T07:50:34;3.70;;;3.27;;
13989;SDS011;7069;52.528;13.316;2023-03-23T07:53:02;4.20;;;3.37;;
13989;SDS011;7069;52.528;13.316;2023-03-23T07:55:28;3.10;;;2.83;;
13989;SDS011;7069;52.528;13.316;2023-03-23T07:57:56;6.80;;;3.50;;
13989;SDS011;7069;52.528;13.316;2023-03-23T08:00:23;5.73;;;3.10;;
13989;SDS011;7069;52.528;13.316;2023-03-23T08:02:51;3.83;;;3.23;;
13989;SDS011;7069;52.528;13.316;2023-03-23T08:05:20;4.40;;;4.00;;
13989;SDS011;7069;52.528;13.316;2023-03-23T08:07:47;5.23;;;3.60;;
13989;SDS011;7069;52.528;13.316;2023-03-23T08:10:14;5.40;;;3.37;;
13989;SDS011;7069;52.528;13.316;2023-03-23T08:12:42;5.57;;;3.10;;
13989;SDS011;7069;52.528;13.316;2023-03-23T08:15:11;3.83;;;3.20;;
13989;SDS011;7069;52.528;13.316;2023-03-23T08:17:39;3.10;;;2.90;;
13989;SDS011;7069;52.528;13.316;2023-03-23T08:20:07;3.77;;;3.33;;
13989;SDS011;7069;52.528;13.316;2023-03-23T08:22:37;4.73;;;3.43;;
13989;SDS011;7069;52.528;13.316;2023-03-23T08:25:05;3.77;;;3.27;;
13989;SDS011;7069;52.528;13.316;2023-03-23T08:27:32;4.33;;;3.07;;
13989;SDS011;7069;52.528;13.316;2023-03-23T08:29:59;5.77;;;3.27;;
13989;SDS011;7069;52.528;13.316;2023-03-23T08:32:27;7.03;;;3.73;;
13989;SDS011;7069;52.528;13.316;2023-03-23T08:34:54;6.57;;;3.77;;
13989;SDS011;7069;52.528;13.316;2023-03-23T08:37:21;4.00;;;3.60;;
13989;SDS011;7069;52.528;13.316;2023-03-23T08:39:50;4.17;;;3.23;;
13989;SDS011;7069;52.528;13.316;2023-03-23T08:42:17;3.17;;;2.87;;
13989;SDS011;7069;52.528;13.316;2023-03-23T08:44:44;7.97;;;3.27;;
13989;SDS011;7069;52.528;13.316;2023-03-23T08:47:11;3.57;;;3.23;;
13989;SDS011;7069;52.528;13.316;2023-03-23T08:49:39;4.27;;;3.20;;
13989;SDS011;7069;52.528;13.316;2023-03-23T08:52:05;3.87;;;3.07;;
13989;SDS011;7069;52.528;13.316;2023-03-23T08:54:32;3.03;;;2.67;;
13989;SDS011;7069;52.528;13.316;2023-03-23T08:56:59;2.83;;;2.40;;
13989;SDS011;7069;52.528;13.316;2023-03-23T08:59:26;4.27;;;2.73;;
13989;SDS011;7069;52.528;13.316;2023-03-23T09:01:53;2.63;;;2.43;;
13989;SDS011;7069;52.528;13.316;2023-03-23T09:04:20;3.20;;;2.63;;
13989;SDS011;7069;52.528;13.316;2023-03-23T09:06:48;2.70;;;2.40;;
13989;SDS011;7069;52.528;13.316;2023-03-23T09:09:15;6.50;;;2.67;;
13989;SDS011;7069;52.528;13.316;2023-03-23T09:11:42;2.87;;;2.63;;
13989;SDS011;7069;52.528;13.316;2023-03-23T09:14:08;3.43;;;2.50;;
13989;SDS011;7069;52.528;13.316;2023-03-23T09:16:35;3.67;;;2.43;;
13989;SDS011;7069;52.528;13.316;2023-03-23T09:19:01;4.73;;;3.53;;
13989;SDS011;7069;52.528;13.316;2023-03-23T09:21:28;2.50;;;2.30;;
13989;SDS011;7069;52.528;13.316;2023-03-23T09:23:57;2.30;;;1.97;;
13989;SDS011;7069;52.528;13.316;2023-03-23T09:26:24;3.67;;;2.03;;
13989;SDS011;7069;52.528;13.316;2023-03-23T09:28:51;2.83;;;2.00;;
13989;SDS011;7069;52.528;13.316;2023-03-23T09:31:18;2.23;;;1.90;;
13989;SDS011;7069;52.528;13.316;2023-03-23T09:33:45;2.83;;;1.77;;
13989;SDS011;7069;52.528;13.316;2023-03-23T09:36:12;2.07;;;1.73;;
13989;SDS011;7069;52.528;13.316;2023-03-23T09:38:41;6.90;;;2.17;;
13989;SDS011;7069;52.528;13.316;2023-03-23T09:41:14;3.27;;;2.10;;
13989;SDS011;7069;52.528;13.316;2023-03-23T09:43:46;3.75;;;2.47;;
13989;SDS011;7069;52.528;13.316;2023-03-23T09:46:21;3.97;;;2.58;;
13989;SDS011;7069;52.528;13.316;2023-03-23T09:48:51;2.15;;;1.70;;
13989;SDS011;7069;52.528;13.316;2023-03-23T09:51:21;2.78;;;1.85;;
13989;SDS011;7069;52.528;13.316;2023-03-23T09:53:51;1.60;;;1.50;;
13989;SDS011;7069;52.528;13.316;2023-03-23T09:56:20;3.72;;;1.77;;
13989;SDS011;7069;52.528;13.316;2023-03-23T09:58:50;2.17;;;1.80;;
13989;SDS011;7069;52.528;13.316;2023-03-23T10:01:20;2.00;;;1.80;;
13989;SDS011;7069;52.528;13.316;2023-03-23T10:03:48;10.35;;;7.28;;
13989;SDS011;7069;52.528;13.316;2023-03-23T10:06:15;2.03;;;1.52;;
13989;SDS011;7069;52.528;13.316;2023-03-23T10:08:44;7.35;;;1.77;;
13989;SDS011;7069;52.528;13.316;2023-03-23T10:11:12;2.45;;;1.52;;
13989;SDS011;7069;52.528;13.316;2023-03-23T10:13:50;5.25;;;1.75;;
13989;SDS011;7069;52.528;13.316;2023-03-23T10:16:19;2.50;;;1.70;;
13989;SDS011;7069;52.528;13.316;2023-03-23T10:18:47;2.30;;;1.67;;
13989;SDS011;7069;52.528;13.316;2023-03-23T10:21:17;1.88;;;1.60;;
13989;SDS011;7069;52.528;13.316;2023-03-23T10:23:47;2.05;;;1.70;;
13989;SDS011;7069;52.528;13.316;2023-03-23T10:26:19;1.90;;;1.40;;
13989;SDS011;7069;52.528;13.316;2023-03-23T10:28:50;1.67;;;1.33;;
13989;SDS011;7069;52.528;13.316;2023-03-23T10:31:18;1.42;;;1.33;;
13989;SDS011;7069;52.528;13.316;2023-03-23T10:33:46;1.30;;;1.20;;
13989;SDS011;7069;52.528;13.316;2023-03-23T10:36:13;1.60;;;1.45;;
13989;SDS011;7069;52.528;13.316;2023-03-23T10:38:43;1.27;;;1.10;;
13989;SDS011;7069;52.528;13.316;2023-03-23T10:41:10;1.90;;;1.60;;
13989;SDS011;7069;52.528;13.316;2023-03-23T10:43:37;1.48;;;1.25;;
13989;SDS011;7069;52.528;13.316;2023-03-23T10:46:09;1.77;;;1.58;;
13989;SDS011;7069;52.528;13.316;2023-03-23T10:48:38;1.70;;;1.60;;
13989;SDS011;7069;52.528;13.316;2023-03-23T10:51:05;2.03;;;1.92;;
13989;SDS011;7069;52.528;13.316;2023-03-23T10:53:36;1.75;;;1.27;;
13989;SDS011;7069;52.528;13.316;2023-03-23T10:56:03;2.22;;;1.55;;
13989;SDS011;7069;52.528;13.316;2023-03-23T10:58:30;1.27;;;1.17;;
13989;SDS011;7069;52.528;13.316;2023-03-23T11:00:57;1.70;;;1.60;;
13989;SDS011;7069;52.528;13.316;2023-03-23T11:03:27;4.25;;;1.67;;
13989;SDS011;7069;52.528;13.316;2023-03-23T11:05:56;2.47;;;1.30;;
13989;SDS011;7069;52.528;13.316;2023-03-23T11:08:24;1.48;;;1.38;;
13989;SDS011;7069;52.528;13.316;2023-03-23T11:10:52;3.38;;;1.45;;
13989;SDS011;7069;52.528;13.316;2023-03-23T11:13:19;1.35;;;1.25;;
13989;SDS011;7069;52.528;13.316;2023-03-23T11:15:47;2.70;;;1.30;;
13989;SDS011;7069;52.528;13.316;2023-03-23T11:18:19;1.73;;;1.58;;
13989;SDS011;7069;52.528;13.316;2023-03-23T11:20:49;2.22;;;1.15;;
13989;SDS011;7069;52.528;13.316;2023-03-23T11:23:19;4.15;;;3.65;;
13989;SDS011;7069;52.528;13.316;2023-03-23T11:25:51;2.47;;;1.70;;
13989;SDS011;7069;52.528;13.316;2023-03-23T11:28:18;1.35;;;1.25;;
13989;SDS011;7069;52.528;13.316;2023-03-23T11:30:45;2.58;;;1.25;;
13989;SDS011;7069;52.528;13.316;2023-03-23T11:33:11;2.38;;;1.45;;
13989;SDS011;7069;52.528;13.316;2023-03-23T11:35:42;1.33;;;1.23;;
13989;SDS011;7069;52.528;13.316;2023-03-23T11:38:15;1.50;;;1.40;;
13989;SDS011;7069;52.528;13.316;2023-03-23T11:40:44;1.88;;;1.35;;
13989;SDS011;7069;52.528;13.316;2023-03-23T11:43:13;2.35;;;1.33;;
13989;SDS011;7069;52.528;13.316;2023-03-23T11:45:40;1.42;;;1.33;;
13989;SDS011;7069;52.528;13.316;2023-03-23T11:48:14;1.30;;;1.20;;
13989;SDS011;7069;52.528;13.316;2023-03-23T11:50:46;2.17;;;1.38;;
13989;SDS011;7069;52.528;13.316;2023-03-23T11:53:15;2.70;;;1.27;;
13989;SDS011;7069;52.528;13.316;2023-03-23T11:55:51;3.92;;;1.33;;
13989;SDS011;7069;52.528;13.316;2023-03-23T11:58:20;1.35;;;1.25;;
13989;SDS011;7069;52.528;13.316;2023-03-23T12:00:48;1.25;;;1.15;;
13989;SDS011;7069;52.528;13.316;2023-03-23T12:03:27;1.05;;;1.00;;
13989;SDS011;7069;52.528;13.316;2023-03-23T12:05:59;2.47;;;1.20;;
13989;SDS011;7069;52.528;13.316;2023-03-23T12:08:38;3.25;;;1.58;;
13989;SDS011;7069;52.528;13.316;2023-03-23T12:11:10;3.30;;;1.40;;
13989;SDS011;7069;52.528;13.316;2023-03-23T12:13:45;1.48;;;1.38;;
13989;SDS011;7069;52.528;13.316;2023-03-23T12:16:18;1.52;;;1.23;;
13989;SDS011;7069;52.528;13.316;2023-03-23T12:18:48;2.75;;;1.45;;
13989;SDS011;7069;52.528;13.316;2023-03-23T12:21:19;2.88;;;1.30;;
13989;SDS011;7069;52.528;13.316;2023-03-23T12:23:50;1.70;;;1.45;;
13989;SDS011;7069;52.528;13.316;2023-03-23T12:26:19;2.75;;;1.77;;
13989;SDS011;7069;52.528;13.316;2023-03-23T12:28:55;2.38;;;1.50;;
13989;SDS011;7069;52.528;13.316;2023-03-23T12:31:25;2.55;;;1.45;;
13989;SDS011;7069;52.528;13.316;2023-03-23T12:33:56;3.58;;;1.67;;
13989;SDS011;7069;52.528;13.316;2023-03-23T12:36:30;3.83;;;1.50;;
13989;SDS011;7069;52.528;13.316;2023-03-23T12:39:10;2.28;;;1.38;;
13989;SDS011;7069;52.528;13.316;2023-03-23T12:41:41;1.48;;;1.17;;
13989;SDS011;7069;52.528;13.316;2023-03-23T12:44:09;2.40;;;2.17;;
13989;SDS011;7069;52.528;13.316;2023-03-23T12:46:41;4.70;;;2.00;;
13989;SDS011;7069;52.528;13.316;2023-03-23T12:49:10;1.42;;;1.23;;
13989;SDS011;7069;52.528;13.316;2023-03-23T12:51:39;2.95;;;2.15;;
13989;SDS011;7069;52.528;13.316;2023-03-23T12:54:11;4.10;;;1.90;;
13989;SDS011;7069;52.528;13.316;2023-03-23T12:56:42;1.40;;;1.30;;
13989;SDS011;7069;52.528;13.316;2023-03-23T12:59:12;2.13;;;1.50;;
13989;SDS011;7069;52.528;13.316;2023-03-23T13:01:40;1.58;;;1.40;;
13989;SDS011;7069;52.528;13.316;2023-03-23T13:04:17;3.00;;;1.85;;
13989;SDS011;7069;52.528;13.316;2023-03-23T13:06:46;2.13;;;1.75;;
13989;SDS011;7069;52.528;13.316;2023-03-23T13:09:14;3.72;;;1.48;;
13989;SDS011;7069;52.528;13.316;2023-03-23T13:11:42;1.33;;;1.23;;
13989;SDS011;7069;52.528;13.316;2023-03-23T13:14:13;1.60;;;1.50;;
13989;SDS011;7069;52.528;13.316;2023-03-23T13:16:43;1.85;;;1.30;;
13989;SDS011;7069;52.528;13.316;2023-03-23T13:19:13;3.28;;;1.60;;
13989;SDS011;7069;52.528;13.316;2023-03-23T13:21:45;4.50;;;1.75;;
13989;SDS011;7069;52.528;13.316;2023-03-23T13:24:15;1.85;;;1.58;;
13989;SDS011;7069;52.528;13.316;2023-03-23T13:26:43;1.80;;;1.60;;
13989;SDS011;7069;52.528;13.316;2023-03-23T13:29:13;2.95;;;1.42;;
13989;SDS011;7069;52.528;13.316;2023-03-23T13:31:40;2.22;;;1.38;;
13989;SDS011;7069;52.528;13.316;2023-03-23T13:34:11;3.60;;;1.67;;
13989;SDS011;7069;52.528;13.316;2023-03-23T13:36:39;2.78;;;1.40;;
13989;SDS011;7069;52.528;13.316;2023-03-23T13:39:16;1.55;;;1.35;;
13989;SDS011;7069;52.528;13.316;2023-03-23T13:41:47;2.65;;;1.30;;
13989;SDS011;7069;52.528;13.316;2023-03-23T13:44:18;3.45;;;1.23;;
13989;SDS011;7069;52.528;13.316;2023-03-23T13:46:55;3.60;;;1.50;;
13989;SDS011;7069;52.528;13.316;2023-03-23T13:49:21;2.00;;;1.55;;
13989;SDS011;7069;52.528;13.316;2023-03-23T13:52:00;1.73;;;1.40;;
13989;SDS011;7069;52.528;13.316;2023-03-23T13:54:38;1.77;;;1.27;;
13989;SDS011;7069;52.528;13.316;2023-03-23T13:57:19;4.03;;;1.65;;
13989;SDS011;7069;52.528;13.316;2023-03-23T13:59:47;4.95;;;1.83;;
13989;SDS011;7069;52.528;13.316;2023-03-23T14:05:08;7.50;;;1.55;;
13989;SDS011;7069;52.528;13.316;2023-03-23T14:07:49;2.05;;;1.38;;
13989;SDS011;7069;52.528;13.316;2023-03-23T14:10:17;2.55;;;1.27;;
13989;SDS011;7069;52.528;13.316;2023-03-23T14:12:44;3.13;;;1.45;;
13989;SDS011;7069;52.528;13.316;2023-03-23T14:15:11;2.65;;;1.60;;
13989;SDS011;7069;52.528;13.316;2023-03-23T14:17:40;3.33;;;2.05;;
13989;SDS011;7069;52.528;13.316;2023-03-23T14:20:10;1.90;;;1.70;;
13989;SDS011;7069;52.528;13.316;2023-03-23T14:22:43;2.80;;;1.48;;
13989;SDS011;7069;52.528;13.316;2023-03-23T14:25:10;2.47;;;1.38;;
13989;SDS011;7069;52.528;13.316;2023-03-23T14:27:39;4.47;;;1.45;;
13989;SDS011;7069;52.528;13.316;2023-03-23T14:30:07;1.58;;;1.20;;
13989;SDS011;7069;52.528;13.316;2023-03-23T14:32:34;2.92;;;1.23;;
13989;SDS011;7069;52.528;13.316;2023-03-23T14:35:05;1.98;;;1.30;;
13989;SDS011;7069;52.528;13.316;2023-03-23T14:37:33;1.50;;;1.30;;
13989;SDS011;7069;52.528;13.316;2023-03-23T14:40:00;3.13;;;1.42;;
13989;SDS011;7069;52.528;13.316;2023-03-23T14:42:30;6.63;;;2.00;;
13989;SDS011;7069;52.528;13.316;2023-03-23T14:44:59;5.20;;;1.38;;
13989;SDS011;7069;52.528;13.316;2023-03-23T14:47:27;2.50;;;1.48;;
13989;SDS011;7069;52.528;13.316;2023-03-23T14:49:55;1.77;;;1.05;;
13989;SDS011;7069;52.528;13.316;2023-03-23T14:52:23;1.88;;;1.40;;
13989;SDS011;7069;52.528;13.316;2023-03-23T14:54:50;2.47;;;1.17;;
13989;SDS011;7069;52.528;13.316;2023-03-23T14:57:17;1.60;;;1.30;;
13989;SDS011;7069;52.528;13.316;2023-03-23T14:59:44;1.95;;;1.02;;
13989;SDS011;7069;52.528;13.316;2023-03-23T15:02:14;3.10;;;1.30;;
13989;SDS011;7069;52.528;13.316;2023-03-23T15:04:43;1.38;;;1.20;;